createdAt,value
2023-05-17T00:00:38.215Z,2.78
2023-05-17T00:03:05.543Z,2.25
2023-05-17T00:05:32.710Z,2.42
2023-05-17T00:07:59.903Z,2.35
2023-05-17T00:10:27.057Z,2.40
2023-05-17T00:12:54.221Z,2.20
2023-05-17T00:15:21.453Z,2.22
2023-05-17T00:17:48.669Z,2.30
2023-05-17T00:20:15.860Z,2.10
2023-05-17T00:22:45.403Z,2.10
2023-05-17T00:25:12.560Z,2.50
2023-05-17T00:27:39.814Z,2.40
2023-05-17T00:30:07.573Z,1.95
2023-05-17T00:32:34.777Z,2.35
2023-05-17T00:35:01.987Z,2.33
2023-05-17T00:37:29.196Z,1.98
2023-05-17T00:39:56.357Z,2.58
2023-05-17T00:42:23.529Z,2.05
2023-05-17T00:44:50.671Z,2.13
2023-05-17T00:47:17.887Z,1.80
2023-05-17T00:49:46.012Z,1.83
2023-05-17T00:52:13.256Z,2.08
2023-05-17T00:54:40.931Z,1.80
2023-05-17T00:57:08.279Z,2.20
2023-05-17T00:59:36.024Z,1.90
2023-05-17T01:02:04.974Z,2.08
2023-05-17T01:04:32.904Z,1.88
2023-05-17T01:07:00.117Z,2.20
2023-05-17T01:09:27.258Z,2.10
2023-05-17T01:11:57.137Z,2.13
2023-05-17T01:14:35.120Z,1.90
2023-05-17T01:17:05.201Z,1.88
2023-05-17T01:19:49.871Z,2.10
2023-05-17T01:22:35.680Z,1.80
2023-05-17T01:25:08.978Z,1.88
2023-05-17T01:27:36.935Z,1.90
2023-05-17T01:30:04.321Z,2.00
2023-05-17T01:32:33.511Z,1.90
2023-05-17T01:35:00.812Z,2.17
2023-05-17T01:37:28.010Z,2.22
2023-05-17T01:39:55.227Z,2.42
2023-05-17T01:42:22.424Z,1.83
2023-05-17T01:44:53.268Z,1.92
2023-05-17T01:47:41.262Z,2.38
2023-05-17T01:50:11.151Z,1.90
2023-05-17T01:52:44.148Z,2.65
2023-05-17T01:55:21.265Z,2.00
2023-05-17T01:57:49.685Z,2.30
2023-05-17T02:00:17.536Z,2.28
2023-05-17T02:02:45.661Z,1.98
2023-05-17T02:05:12.950Z,2.03
2023-05-17T02:07:40.178Z,2.35
2023-05-17T02:10:07.617Z,2.38
2023-05-17T02:12:34.825Z,2.20
2023-05-17T02:15:01.972Z,2.40
2023-05-17T02:17:29.221Z,2.20
2023-05-17T02:19:56.414Z,2.30
2023-05-17T02:22:23.567Z,2.50
2023-05-17T02:24:50.725Z,2.13
2023-05-17T02:27:17.852Z,2.03
2023-05-17T02:29:44.998Z,2.10
2023-05-17T02:32:12.550Z,2.22
2023-05-17T02:34:39.685Z,2.35
2023-05-17T02:37:06.994Z,2.33
2023-05-17T02:39:34.207Z,2.40
2023-05-17T02:42:01.346Z,2.33
2023-05-17T02:44:29.390Z,2.80
2023-05-17T02:46:56.525Z,2.50
2023-05-17T02:49:23.715Z,2.75
2023-05-17T02:51:50.905Z,2.22
2023-05-17T02:54:18.146Z,2.13
2023-05-17T02:56:45.283Z,2.10
2023-05-17T02:59:12.500Z,2.65
2023-05-17T03:01:39.804Z,2.40
2023-05-17T03:04:07.012Z,2.38
2023-05-17T03:06:34.700Z,2.30
2023-05-17T03:09:01.847Z,2.25
2023-05-17T03:11:29.042Z,3.13
2023-05-17T03:13:56.312Z,2.85
2023-05-17T03:16:23.469Z,1.90
2023-05-17T03:18:50.913Z,1.85
2023-05-17T03:21:18.233Z,2.65
2023-05-17T03:23:45.536Z,2.50
2023-05-17T03:26:12.754Z,2.30
2023-05-17T03:28:39.886Z,2.45
2023-05-17T03:31:07.138Z,2.20
2023-05-17T03:33:34.467Z,2.22
2023-05-17T03:36:01.783Z,2.03
2023-05-17T03:38:29.105Z,2.08
2023-05-17T03:40:56.345Z,2.13
2023-05-17T03:43:23.529Z,1.95
2023-05-17T03:45:50.816Z,1.95
2023-05-17T03:48:18.020Z,1.80
2023-05-17T03:50:45.651Z,2.13
2023-05-17T03:53:12.779Z,1.98
2023-05-17T03:55:40.008Z,2.03
2023-05-17T03:58:07.558Z,2.42
2023-05-17T04:00:34.835Z,1.92
2023-05-17T04:03:02.122Z,1.60
2023-05-17T04:05:29.560Z,1.80
2023-05-17T04:07:56.928Z,1.50
2023-05-17T04:10:24.127Z,1.92
2023-05-17T04:12:51.381Z,1.55
2023-05-17T04:15:18.528Z,1.95
2023-05-17T04:17:45.822Z,1.77
2023-05-17T04:20:13.340Z,1.83
2023-05-17T04:22:40.580Z,2.00
2023-05-17T04:25:08.359Z,1.88
2023-05-17T04:27:35.734Z,1.70
2023-05-17T04:30:02.974Z,1.83
2023-05-17T04:32:30.725Z,1.73
2023-05-17T04:34:57.904Z,1.80
2023-05-17T04:37:27.394Z,1.60
2023-05-17T04:39:54.591Z,1.70
2023-05-17T04:42:21.722Z,1.92
2023-05-17T04:44:48.886Z,1.50
2023-05-17T04:47:16.027Z,1.77
2023-05-17T04:49:43.327Z,1.85
2023-05-17T04:52:10.480Z,2.47
2023-05-17T04:54:37.693Z,1.98
2023-05-17T04:57:04.917Z,1.65
2023-05-17T04:59:32.093Z,3.03
2023-05-17T05:01:59.233Z,1.83
2023-05-17T05:04:26.397Z,2.05
2023-05-17T05:06:53.623Z,1.70
2023-05-17T05:09:20.786Z,1.60
2023-05-17T05:11:47.928Z,1.75
2023-05-17T05:14:15.064Z,1.63
2023-05-17T05:16:42.225Z,2.00
2023-05-17T05:19:10.373Z,1.90
2023-05-17T05:21:37.638Z,2.22
2023-05-17T05:24:05.000Z,1.75
2023-05-17T05:26:32.931Z,1.80
2023-05-17T05:29:00.261Z,2.30
2023-05-17T05:31:27.722Z,1.67
2023-05-17T05:33:54.902Z,2.30
2023-05-17T05:36:22.152Z,2.42
2023-05-17T05:38:49.521Z,2.10
2023-05-17T05:41:17.032Z,1.50
2023-05-17T05:43:44.192Z,1.80
2023-05-17T05:46:11.423Z,1.80
2023-05-17T05:48:41.660Z,1.90
2023-05-17T05:51:09.662Z,1.70
2023-05-17T05:53:36.795Z,1.52
2023-05-17T05:56:04.508Z,1.70
2023-05-17T05:58:32.583Z,1.73
2023-05-17T06:01:00.213Z,2.00
2023-05-17T06:03:27.374Z,1.63
2023-05-17T06:05:54.586Z,1.70
2023-05-17T06:08:21.756Z,1.77
2023-05-17T06:10:48.932Z,1.73
2023-05-17T06:13:16.152Z,1.35
2023-05-17T06:15:43.355Z,1.60
2023-05-17T06:18:10.556Z,1.58
2023-05-17T06:20:37.773Z,1.20
2023-05-17T06:23:05.227Z,2.40
2023-05-17T06:25:32.494Z,1.95
2023-05-17T06:28:02.551Z,1.85
2023-05-17T06:30:30.557Z,2.55
2023-05-17T06:33:01.070Z,2.05
2023-05-17T06:35:30.142Z,1.92
2023-05-17T06:38:00.269Z,2.05
2023-05-17T06:40:27.474Z,1.70
2023-05-17T06:42:54.622Z,1.92
2023-05-17T06:45:21.890Z,2.08
2023-05-17T06:47:49.133Z,1.77
2023-05-17T06:50:16.326Z,2.40
2023-05-17T06:52:43.563Z,2.05
2023-05-17T06:55:10.768Z,2.22
2023-05-17T06:57:38.001Z,1.73
2023-05-17T07:00:11.050Z,1.50
2023-05-17T07:02:38.477Z,2.30
2023-05-17T07:05:09.070Z,1.30
2023-05-17T07:07:36.356Z,1.48
2023-05-17T07:10:03.604Z,1.70
2023-05-17T07:12:30.838Z,1.75
2023-05-17T07:14:58.978Z,1.77
2023-05-17T07:17:26.368Z,2.03
2023-05-17T07:19:53.670Z,1.70
2023-05-17T07:22:21.019Z,1.50
2023-05-17T07:24:48.345Z,1.40
2023-05-17T07:27:15.486Z,1.30
2023-05-17T07:29:43.028Z,1.50
2023-05-17T07:32:10.350Z,1.67
2023-05-17T07:34:37.805Z,1.42
2023-05-17T07:37:05.181Z,1.88
2023-05-17T07:39:32.308Z,1.17
2023-05-17T07:41:59.472Z,0.98
2023-05-17T07:44:26.826Z,1.55
2023-05-17T07:46:54.250Z,1.20
2023-05-17T07:49:21.507Z,1.73
2023-05-17T07:51:48.741Z,1.20
2023-05-17T07:54:27.223Z,1.58
2023-05-17T07:56:55.447Z,1.20
2023-05-17T07:59:23.220Z,1.35
2023-05-17T08:01:50.579Z,1.40
2023-05-17T08:04:19.123Z,1.60
2023-05-17T08:06:48.258Z,1.23
2023-05-17T08:09:20.108Z,1.55
2023-05-17T08:11:47.865Z,1.70
2023-05-17T08:14:15.857Z,1.30
2023-05-17T08:16:43.551Z,1.80
2023-05-17T08:19:15.858Z,1.63
2023-05-17T08:21:44.708Z,1.40
2023-05-17T08:24:11.942Z,1.40
2023-05-17T08:26:39.176Z,1.60
2023-05-17T08:29:06.675Z,1.63
2023-05-17T08:31:33.956Z,1.58
2023-05-17T08:34:01.315Z,1.58
2023-05-17T08:36:28.606Z,1.70
2023-05-17T08:38:55.863Z,1.50
2023-05-17T08:41:23.094Z,1.65
2023-05-17T08:43:50.998Z,1.90
2023-05-17T08:46:22.665Z,1.83
2023-05-17T08:48:53.650Z,1.92
2023-05-17T08:51:21.453Z,2.10
2023-05-17T08:53:50.310Z,1.70
2023-05-17T08:56:19.527Z,2.03
2023-05-17T09:01:19.336Z,1.83
2023-05-17T09:03:49.857Z,1.83
2023-05-17T09:06:24.069Z,2.03
2023-05-17T09:08:52.926Z,1.73
2023-05-17T09:11:27.853Z,1.92
2023-05-17T09:13:58.687Z,1.65
2023-05-17T09:16:26.622Z,1.52
2023-05-17T09:18:55.268Z,1.67
2023-05-17T09:21:23.693Z,1.65
2023-05-17T09:24:04.684Z,1.63
2023-05-17T09:26:40.352Z,1.55
2023-05-17T09:29:15.223Z,1.70
2023-05-17T09:31:43.096Z,1.60
2023-05-17T09:34:11.681Z,1.35
2023-05-17T09:36:39.610Z,1.50
2023-05-17T09:39:10.573Z,1.48
2023-05-17T09:41:45.556Z,1.60
2023-05-17T09:44:13.467Z,1.70
2023-05-17T09:46:47.872Z,1.80
2023-05-17T09:49:16.075Z,1.88
2023-05-17T09:51:47.470Z,1.73
2023-05-17T09:54:14.823Z,1.40
2023-05-17T09:56:42.045Z,1.38
2023-05-17T09:59:16.231Z,1.52
2023-05-17T10:01:44.972Z,1.20
2023-05-17T10:04:13.295Z,1.30
2023-05-17T10:09:13.708Z,1.88
2023-05-17T10:11:43.033Z,2.03
2023-05-17T10:14:22.498Z,1.85
2023-05-17T10:16:50.734Z,1.85
2023-05-17T10:19:20.199Z,1.55
2023-05-17T10:22:07.850Z,1.95
2023-05-17T10:24:38.701Z,1.60
2023-05-17T10:27:07.598Z,1.77
2023-05-17T10:29:35.348Z,2.03
2023-05-17T10:32:09.427Z,1.90
2023-05-17T10:34:37.044Z,1.40
2023-05-17T10:37:05.030Z,1.77
2023-05-17T10:39:34.432Z,1.42
2023-05-17T10:42:13.672Z,1.38
2023-05-17T10:44:42.409Z,1.45
2023-05-17T10:47:09.583Z,1.50
2023-05-17T10:49:38.996Z,1.60
2023-05-17T10:52:13.798Z,1.63
2023-05-17T10:57:08.934Z,1.23
2023-05-17T10:59:37.014Z,1.50
2023-05-17T11:02:04.236Z,1.52
2023-05-17T11:04:34.679Z,1.58
2023-05-17T11:07:22.084Z,1.40
2023-05-17T11:09:53.467Z,1.27
2023-05-17T11:12:40.599Z,1.60
2023-05-17T11:15:15.284Z,1.27
2023-05-17T11:17:54.787Z,1.38
2023-05-17T11:20:29.123Z,1.35
2023-05-17T11:22:57.016Z,1.40
2023-05-17T11:25:24.237Z,2.20
2023-05-17T11:27:52.295Z,1.58
2023-05-17T11:30:24.642Z,1.90
2023-05-17T11:32:58.242Z,2.10
2023-05-17T11:35:27.386Z,1.27
2023-05-17T11:37:55.148Z,1.23
2023-05-17T11:40:26.732Z,1.27
2023-05-17T11:43:23.359Z,1.63
2023-05-17T11:46:04.024Z,1.20
2023-05-17T11:48:31.831Z,1.00
2023-05-17T11:51:01.922Z,1.00
2023-05-17T11:53:31.506Z,1.55
2023-05-17T11:56:04.493Z,1.60
2023-05-17T11:58:32.401Z,1.27
2023-05-17T12:00:59.867Z,1.20
2023-05-17T12:03:30.738Z,1.30
2023-05-17T12:06:04.192Z,1.50
2023-05-17T12:08:32.325Z,1.38
2023-05-17T12:10:59.561Z,1.35
2023-05-17T12:13:33.733Z,1.60
2023-05-17T12:16:02.783Z,1.40
2023-05-17T12:18:40.330Z,1.40
2023-05-17T12:21:08.084Z,1.50
2023-05-17T12:23:43.458Z,1.75
2023-05-17T12:26:11.782Z,1.48
2023-05-17T12:28:40.160Z,1.92
2023-05-17T12:31:09.480Z,1.40
2023-05-17T12:33:39.247Z,1.58
2023-05-17T12:36:06.925Z,1.40
2023-05-17T12:38:34.771Z,1.42
2023-05-17T12:41:03.140Z,1.67
2023-05-17T12:43:31.814Z,2.20
2023-05-17T12:46:06.842Z,1.80
2023-05-17T12:48:37.773Z,1.70
2023-05-17T12:51:12.409Z,1.80
2023-05-17T12:53:41.781Z,1.98
2023-05-17T12:56:09.535Z,1.90
2023-05-17T12:58:36.725Z,1.95
2023-05-17T13:01:06.953Z,1.77
2023-05-17T13:03:34.734Z,1.60
2023-05-17T13:06:02.816Z,1.63
2023-05-17T13:08:30.055Z,1.42
2023-05-17T13:11:10.504Z,1.80
2023-05-17T13:13:37.887Z,1.38
2023-05-17T13:16:05.226Z,1.73
2023-05-17T13:18:35.686Z,1.63
2023-05-17T13:21:03.043Z,1.60
2023-05-17T13:23:30.206Z,1.77
2023-05-17T13:25:57.451Z,1.77
2023-05-17T13:28:25.410Z,1.90
2023-05-17T13:30:52.626Z,1.80
2023-05-17T13:33:20.020Z,1.85
2023-05-17T13:35:47.230Z,2.15
2023-05-17T13:38:14.451Z,1.75
2023-05-17T13:40:41.657Z,1.88
2023-05-17T13:43:09.980Z,2.40
2023-05-17T13:45:37.244Z,2.20
2023-05-17T13:48:04.910Z,1.90
2023-05-17T13:50:32.310Z,2.13
2023-05-17T13:52:59.701Z,2.35
2023-05-17T13:55:26.898Z,2.10
2023-05-17T13:57:54.280Z,1.88
2023-05-17T14:00:21.802Z,2.00
2023-05-17T14:02:49.542Z,2.08
2023-05-17T14:05:16.944Z,2.97
2023-05-17T14:07:44.435Z,2.20
2023-05-17T14:10:15.077Z,1.95
2023-05-17T14:12:42.376Z,2.10
2023-05-17T14:15:10.653Z,1.90
2023-05-17T14:17:37.997Z,1.75
2023-05-17T14:20:05.780Z,2.10
2023-05-17T14:22:32.994Z,2.00
2023-05-17T14:25:00.167Z,2.08
2023-05-17T14:27:27.300Z,13.43
2023-05-17T14:29:54.565Z,2.40
2023-05-17T14:32:21.718Z,2.05
2023-05-17T14:34:48.846Z,6.50
2023-05-17T14:37:16.280Z,2.20
2023-05-17T14:39:49.541Z,2.30
2023-05-17T14:42:26.862Z,1.63
2023-05-17T14:44:54.078Z,2.30
2023-05-17T14:47:21.686Z,2.38
2023-05-17T14:49:48.825Z,2.60
2023-05-17T14:52:15.974Z,2.53
2023-05-17T14:54:43.116Z,2.00
2023-05-17T14:57:10.703Z,2.20
2023-05-17T14:59:38.013Z,2.05
2023-05-17T15:02:05.847Z,2.35
2023-05-17T15:04:33.135Z,3.20
2023-05-17T15:07:00.595Z,2.05
2023-05-17T15:09:28.143Z,2.22
2023-05-17T15:11:55.346Z,2.47
2023-05-17T15:14:23.941Z,2.60
2023-05-17T15:16:52.304Z,2.90
2023-05-17T15:19:19.776Z,2.33
2023-05-17T15:21:47.084Z,2.05
2023-05-17T15:24:16.438Z,2.22
2023-05-17T15:26:44.958Z,2.67
2023-05-17T15:29:12.138Z,2.40
2023-05-17T15:31:39.877Z,2.70
2023-05-17T15:34:08.684Z,2.08
2023-05-17T15:36:36.569Z,2.25
2023-05-17T15:39:04.053Z,2.30
2023-05-17T15:41:32.310Z,2.30
2023-05-17T15:43:59.652Z,2.30
2023-05-17T15:46:26.927Z,2.38
2023-05-17T15:48:54.168Z,2.33
2023-05-17T15:51:21.329Z,2.47
2023-05-17T15:53:48.480Z,2.60
2023-05-17T15:56:17.776Z,2.88
2023-05-17T15:58:44.965Z,2.53
2023-05-17T16:01:15.706Z,3.42
2023-05-17T16:03:43.012Z,2.28
2023-05-17T16:06:10.333Z,2.28
2023-05-17T16:08:37.908Z,3.03
2023-05-17T16:11:05.103Z,2.97
2023-05-17T16:13:32.298Z,2.55
2023-05-17T16:16:00.192Z,3.10
2023-05-17T16:18:27.745Z,3.03
2023-05-17T16:21:02.676Z,3.50
2023-05-17T16:25:57.153Z,3.65
2023-05-17T16:28:24.415Z,4.95
2023-05-17T16:30:52.245Z,3.70
2023-05-17T16:33:23.015Z,3.38
2023-05-17T16:35:50.568Z,3.53
2023-05-17T16:38:17.737Z,3.38
2023-05-17T16:40:45.168Z,3.70
2023-05-17T16:43:15.871Z,2.95
2023-05-17T16:45:46.515Z,3.63
2023-05-17T16:48:14.416Z,3.40
2023-05-17T16:50:45.125Z,3.78
2023-05-17T16:53:12.665Z,3.50
2023-05-17T16:55:39.875Z,3.58
2023-05-17T16:58:07.326Z,3.10
2023-05-17T17:00:34.890Z,3.22
2023-05-17T17:03:02.122Z,3.75
2023-05-17T17:05:29.361Z,3.70
2023-05-17T17:07:56.599Z,3.63
2023-05-17T17:10:23.877Z,3.67
2023-05-17T17:12:51.106Z,3.90
2023-05-17T17:15:18.284Z,3.50
2023-05-17T17:17:45.722Z,3.50
2023-05-17T17:20:13.658Z,3.58
2023-05-17T17:22:41.498Z,3.42
2023-05-17T17:25:09.118Z,3.78
2023-05-17T17:27:36.375Z,3.80
2023-05-17T17:30:04.101Z,3.80
2023-05-17T17:32:31.535Z,3.45
2023-05-17T17:34:58.970Z,3.38
2023-05-17T17:37:26.245Z,3.33
2023-05-17T17:39:53.558Z,3.38
2023-05-17T17:42:20.970Z,3.45
2023-05-17T17:44:48.147Z,3.78
2023-05-17T17:47:15.424Z,3.90
2023-05-17T17:49:42.598Z,3.47
2023-05-17T17:52:09.753Z,2.95
2023-05-17T17:54:36.946Z,3.30
2023-05-17T17:57:05.250Z,3.30
2023-05-17T17:59:32.913Z,3.45
2023-05-17T18:02:00.093Z,2.92
2023-05-17T18:04:27.331Z,3.05
2023-05-17T18:06:55.000Z,3.50
2023-05-17T18:09:23.246Z,3.15
2023-05-17T18:11:50.662Z,3.35
2023-05-17T18:14:17.877Z,3.22
2023-05-17T18:16:45.188Z,3.10
2023-05-17T18:19:12.459Z,3.28
2023-05-17T18:21:39.685Z,2.80
2023-05-17T18:24:07.065Z,3.05
2023-05-17T18:26:34.282Z,3.05
2023-05-17T18:29:01.573Z,3.00
2023-05-17T18:31:28.750Z,2.92
2023-05-17T18:33:57.270Z,3.35
2023-05-17T18:36:24.679Z,2.90
2023-05-17T18:38:52.457Z,3.00
2023-05-17T18:41:20.077Z,3.17
2023-05-17T18:43:47.290Z,2.63
2023-05-17T18:46:14.470Z,3.35
2023-05-17T18:48:41.628Z,2.97
2023-05-17T18:51:08.841Z,2.92
2023-05-17T18:53:36.220Z,2.95
2023-05-17T18:56:03.421Z,2.60
2023-05-17T18:58:30.659Z,2.88
2023-05-17T19:00:58.039Z,3.30
2023-05-17T19:03:25.265Z,3.03
2023-05-17T19:05:52.433Z,4.03
2023-05-17T19:08:32.795Z,3.20
2023-05-17T19:11:03.949Z,3.10
2023-05-17T19:13:31.124Z,3.20
2023-05-17T19:15:58.381Z,3.13
2023-05-17T19:18:25.655Z,2.72
2023-05-17T19:20:52.908Z,3.33
2023-05-17T19:23:21.317Z,3.25
2023-05-17T19:25:48.747Z,3.20
2023-05-17T19:28:15.892Z,2.80
2023-05-17T19:30:43.041Z,2.90
2023-05-17T19:33:11.948Z,3.15
2023-05-17T19:35:42.178Z,3.50
2023-05-17T19:38:10.453Z,3.10
2023-05-17T19:40:39.179Z,3.10
2023-05-17T19:43:06.355Z,3.17
2023-05-17T19:45:33.500Z,2.95
2023-05-17T19:48:00.843Z,3.08
2023-05-17T19:50:28.169Z,3.97
2023-05-17T19:52:55.665Z,3.58
2023-05-17T19:55:22.960Z,3.40
2023-05-17T19:57:50.195Z,3.53
2023-05-17T20:00:20.874Z,3.15
2023-05-17T20:02:48.245Z,3.40
2023-05-17T20:05:17.086Z,3.28
2023-05-17T20:07:44.472Z,3.78
2023-05-17T20:10:11.774Z,3.40
2023-05-17T20:12:39.263Z,3.42
2023-05-17T20:15:06.776Z,3.80
2023-05-17T20:17:34.034Z,3.20
2023-05-17T20:20:01.334Z,2.90
2023-05-17T20:22:28.524Z,3.20
2023-05-17T20:24:57.769Z,3.00
2023-05-17T20:27:26.241Z,3.20
2023-05-17T20:29:53.416Z,3.20
2023-05-17T20:32:20.719Z,3.28
2023-05-17T20:34:47.881Z,2.88
2023-05-17T20:37:15.736Z,3.25
2023-05-17T20:39:42.861Z,3.25
2023-05-17T20:42:10.077Z,3.60
2023-05-17T20:44:37.305Z,3.30
2023-05-17T20:47:05.895Z,3.42
2023-05-17T20:49:33.037Z,3.05
2023-05-17T20:52:03.370Z,2.85
2023-05-17T20:54:30.729Z,3.53
2023-05-17T20:57:01.976Z,4.45
2023-05-17T20:59:29.173Z,3.42
2023-05-17T21:01:56.525Z,3.50
2023-05-17T21:04:23.840Z,3.20
2023-05-17T21:06:52.270Z,3.42
2023-05-17T21:09:19.450Z,3.55
2023-05-17T21:11:46.574Z,3.38
2023-05-17T21:14:13.788Z,3.42
2023-05-17T21:16:40.997Z,3.72
2023-05-17T21:19:09.732Z,3.40
2023-05-17T21:21:37.006Z,3.28
2023-05-17T21:24:04.237Z,3.05
2023-05-17T21:26:31.444Z,3.80
2023-05-17T21:28:58.663Z,3.60
2023-05-17T21:31:28.221Z,3.50
2023-05-17T21:33:55.903Z,4.22
2023-05-17T21:36:23.083Z,3.72
2023-05-17T21:38:50.358Z,3.83
2023-05-17T21:41:17.508Z,3.90
2023-05-17T21:43:44.704Z,3.63
2023-05-17T21:46:11.928Z,3.53
2023-05-17T21:48:39.104Z,3.65
2023-05-17T21:51:06.412Z,3.38
2023-05-17T21:53:33.662Z,3.30
2023-05-17T21:56:03.034Z,3.90
2023-05-17T21:58:31.085Z,3.40
2023-05-17T22:00:58.561Z,3.70
2023-05-17T22:03:26.037Z,3.78
2023-05-17T22:05:53.348Z,3.42
2023-05-17T22:08:20.590Z,3.65
2023-05-17T22:10:50.159Z,3.58
2023-05-17T22:13:18.278Z,3.28
2023-05-17T22:15:46.244Z,3.40
2023-05-17T22:18:13.677Z,3.63
2023-05-17T22:20:41.010Z,3.92
2023-05-17T22:23:08.213Z,4.03
2023-05-17T22:25:36.164Z,4.30
2023-05-17T22:28:03.421Z,5.38
2023-05-17T22:30:30.831Z,4.00
2023-05-17T22:32:58.354Z,4.13
2023-05-17T22:35:25.623Z,3.90
2023-05-17T22:37:53.461Z,3.72
2023-05-17T22:40:20.864Z,5.40
2023-05-17T22:42:48.245Z,5.07
2023-05-17T22:45:15.573Z,4.05
2023-05-17T22:47:42.808Z,3.60
2023-05-17T22:50:11.930Z,3.70
2023-05-17T22:52:41.200Z,4.03
2023-05-17T22:55:08.543Z,3.80
2023-05-17T22:57:35.744Z,3.80
2023-05-17T23:00:06.148Z,3.67
2023-05-17T23:02:33.320Z,4.15
2023-05-17T23:05:03.691Z,4.13
2023-05-17T23:07:38.328Z,4.25
2023-05-17T23:10:09.933Z,3.95
2023-05-17T23:12:37.690Z,4.20
2023-05-17T23:15:06.188Z,4.32
2023-05-17T23:17:33.734Z,4.30
2023-05-17T23:20:10.405Z,4.00
2023-05-17T23:22:38.748Z,4.25
2023-05-17T23:25:06.521Z,4.50
2023-05-17T23:27:35.457Z,3.45
2023-05-17T23:30:02.785Z,4.47
2023-05-17T23:32:32.577Z,3.78
2023-05-17T23:35:03.669Z,4.07
2023-05-17T23:37:34.254Z,4.10
2023-05-17T23:40:01.531Z,3.75
2023-05-17T23:42:31.910Z,4.32
2023-05-17T23:45:00.634Z,3.85
2023-05-17T23:47:33.593Z,4.13
2023-05-17T23:50:01.044Z,4.13
2023-05-17T23:52:32.285Z,4.00
2023-05-17T23:54:59.530Z,4.20
2023-05-17T23:57:26.697Z,3.80
2023-05-17T23:59:53.857Z,4.45
